KHEY

Hanchey AHP (Fort Rucker) Heliport

Fort Rucker Ozark, Alabama, USA
METAR KHEY 170358Z AUTO 00000KT 10SM CLR 23/23 A3012 RMK AO2 SLP199 T02280226
Observed Flight Rules
Oct-17 @ 03:58 UTC (an hour ago) Visual Flight Rules
Visibility Clouds
10 miles
  • Clear skies
Temperatures Readings
Current 23°C / 73°F
Dewpoint 23°C / 73°F
Humidity 100%
Altimeter 30.12" Hg
Pressure 1019.9 hPa
Elevation 97
METAR KHEY 170358Z AUTO 00000KT 10SM CLR 23/23 A3012 RMK AO2 SLP199 T02280226
Observed Flight Rules
Oct-17 @ 03:58 UTC
(an hour ago)
VFR
Clouds
  • Clear skies
Temperature Dewpoint
23°C / 73°F 23°C / 73°F
Humidity Altimeter Pressure
100% 30.12" Hg 1019.9 hPa